createdAt,value
2019-02-22T00:01:10.969Z,93.14
2019-02-22T00:06:35.606Z,93.22
2019-02-22T00:12:00.301Z,93.37
2019-02-22T00:17:24.219Z,93.46
2019-02-22T00:22:48.271Z,93.04
2019-02-22T00:28:13.196Z,92.44
2019-02-22T00:33:37.334Z,91.92
2019-02-22T00:39:01.836Z,92.32
2019-02-22T00:44:27.158Z,91.96
2019-02-22T00:49:51.560Z,91.78
2019-02-22T00:55:15.360Z,91.75
2019-02-22T01:00:39.712Z,91.95
2019-02-22T01:06:04.215Z,91.36
2019-02-22T01:11:28.337Z,91.07
2019-02-22T01:16:52.940Z,91.43
2019-02-22T01:22:17.329Z,91.97
2019-02-22T01:27:42.395Z,92.22
2019-02-22T01:33:06.931Z,91.94
2019-02-22T01:38:30.609Z,91.65
2019-02-22T01:43:54.847Z,91.65
2019-02-22T01:49:19.857Z,91.80
2019-02-22T01:54:44.555Z,91.71
2019-02-22T02:00:10.812Z,91.78
2019-02-22T02:05:35.314Z,92.04
2019-02-22T02:11:00.023Z,92.24
2019-02-22T02:16:24.577Z,92.10
2019-02-22T02:21:49.047Z,91.85
2019-02-22T02:27:12.995Z,91.98
2019-02-22T02:32:37.502Z,91.93
2019-02-22T02:38:02.205Z,91.78
2019-02-22T02:43:26.644Z,91.78
2019-02-22T02:48:51.107Z,91.65
2019-02-22T02:54:15.626Z,91.52
2019-02-22T02:59:40.304Z,91.07
2019-02-22T03:05:05.234Z,91.03
2019-02-22T03:10:31.540Z,91.15
2019-02-22T03:15:56.152Z,90.74
2019-02-22T03:21:20.965Z,90.34
2019-02-22T03:26:45.110Z,90.56
2019-02-22T03:32:09.173Z,90.36
2019-02-22T03:37:33.648Z,90.79
2019-02-22T03:42:57.242Z,90.78
2019-02-22T03:48:22.310Z,91.15
2019-02-22T03:54:05.240Z,91.04
2019-02-22T03:59:29.064Z,90.58
2019-02-22T04:04:53.707Z,90.02
2019-02-22T04:10:17.286Z,89.33
2019-02-22T04:15:41.972Z,87.48
2019-02-22T04:21:06.853Z,87.11
2019-02-22T04:26:31.160Z,85.98
2019-02-22T04:31:54.763Z,86.40
2019-02-22T04:37:18.502Z,86.47
2019-02-22T04:42:42.252Z,86.35
2019-02-22T04:48:06.147Z,86.75
2019-02-22T04:53:30.772Z,87.68
2019-02-22T04:58:57.176Z,88.26
2019-02-22T05:04:20.781Z,89.21
2019-02-22T05:09:44.956Z,89.44
2019-02-22T05:15:12.956Z,89.93
2019-02-22T05:20:35.270Z,89.94
2019-02-22T05:25:59.181Z,89.10
2019-02-22T05:31:24.372Z,89.50
2019-02-22T05:36:48.035Z,89.65
2019-02-22T05:42:22.269Z,90.02
2019-02-22T05:47:37.368Z,90.51
2019-02-22T05:53:02.235Z,90.98
2019-02-22T05:58:27.032Z,91.25
2019-02-22T06:03:51.479Z,91.25
2019-02-22T06:09:15.472Z,90.33
2019-02-22T06:14:40.260Z,89.99
2019-02-22T06:20:04.309Z,89.92
2019-02-22T06:25:28.638Z,89.80
2019-02-22T06:30:52.342Z,88.98
2019-02-22T06:36:16.575Z,87.67
2019-02-22T06:41:41.980Z,86.63
2019-02-22T06:47:05.676Z,85.61
2019-02-22T06:52:29.866Z,86.89
2019-02-22T06:57:53.670Z,86.75
2019-02-22T07:03:17.499Z,86.50
2019-02-22T07:08:41.939Z,85.79
2019-02-22T07:14:05.710Z,85.69
2019-02-22T07:19:30.386Z,85.73
2019-02-22T07:24:54.339Z,85.26
2019-02-22T07:30:19.086Z,83.40
2019-02-22T07:35:43.735Z,83.17
2019-02-22T07:41:08.758Z,83.00
2019-02-22T07:46:32.830Z,83.48
2019-02-22T07:51:56.467Z,81.34
2019-02-22T07:57:20.715Z,81.75
2019-02-22T08:02:45.363Z,81.62
2019-02-22T08:08:10.398Z,80.93
2019-02-22T08:13:34.814Z,80.36
2019-02-22T08:19:01.801Z,80.13
2019-02-22T08:24:25.906Z,77.72
2019-02-22T08:29:50.923Z,79.08
2019-02-22T08:35:16.685Z,78.03
2019-02-22T08:40:41.153Z,78.45
2019-02-22T08:46:05.037Z,76.70
2019-02-22T08:51:29.272Z,75.59
2019-02-22T08:56:53.203Z,75.37
2019-02-22T09:02:17.116Z,74.11
2019-02-22T09:07:42.071Z,73.72
2019-02-22T09:13:06.762Z,71.90
2019-02-22T09:18:31.209Z,68.74
2019-02-22T09:23:58.335Z,67.21
2019-02-22T09:29:22.917Z,63.58
2019-02-22T09:34:47.578Z,61.55
2019-02-22T09:40:11.419Z,56.26
2019-02-22T09:45:36.545Z,50.57
2019-02-22T09:51:01.413Z,50.05
2019-02-22T09:56:25.399Z,48.75
2019-02-22T10:01:50.073Z,47.26
2019-02-22T10:07:13.909Z,47.74
2019-02-22T10:12:38.874Z,45.38
2019-02-22T10:18:03.325Z,44.67
2019-02-22T10:23:27.776Z,44.05
2019-02-22T10:28:52.511Z,44.35
2019-02-22T10:34:18.365Z,43.85
2019-02-22T10:39:43.390Z,42.42
2019-02-22T10:45:08.226Z,40.61
2019-02-22T10:50:32.185Z,40.89
2019-02-22T10:55:56.053Z,40.03
2019-02-22T11:01:20.393Z,40.42
2019-02-22T11:06:44.748Z,38.82
2019-02-22T11:12:08.615Z,39.25
2019-02-22T11:17:32.465Z,37.40
2019-02-22T11:22:56.797Z,37.51
2019-02-22T11:28:20.569Z,37.13
2019-02-22T11:33:45.488Z,35.91
2019-02-22T11:39:10.402Z,38.55
2019-02-22T11:44:40.287Z,37.12
2019-02-22T11:50:01.120Z,38.59
2019-02-22T11:55:26.693Z,39.09
2019-02-22T12:00:51.010Z,37.07
2019-02-22T12:06:15.310Z,37.54
2019-02-22T12:11:40.248Z,38.90
2019-02-22T12:17:04.104Z,38.19
2019-02-22T12:22:28.702Z,37.28
2019-02-22T12:27:52.576Z,37.07
2019-02-22T12:33:17.384Z,36.62
2019-02-22T12:38:41.853Z,36.35
2019-02-22T12:44:06.337Z,35.13
2019-02-22T12:49:30.053Z,32.50
2019-02-22T12:54:54.725Z,33.47
2019-02-22T13:00:18.818Z,31.45
2019-02-22T13:05:43.523Z,34.46
2019-02-22T13:11:07.876Z,35.49
2019-02-22T13:16:32.559Z,34.34
2019-02-22T13:21:56.638Z,35.07
2019-02-22T13:27:21.837Z,33.69
2019-02-22T13:32:45.562Z,31.78
2019-02-22T13:38:09.981Z,32.38
2019-02-22T13:43:34.893Z,32.20
2019-02-22T13:48:59.403Z,31.33
2019-02-22T13:54:24.052Z,32.87
2019-02-22T13:59:48.645Z,31.11
2019-02-22T14:05:13.418Z,32.28
2019-02-22T14:10:38.432Z,31.10
2019-02-22T14:16:02.864Z,31.36
2019-02-22T14:21:26.409Z,31.24
2019-02-22T14:26:50.848Z,33.49
2019-02-22T14:32:15.633Z,33.76
2019-02-22T14:37:39.820Z,33.33
2019-02-22T14:43:03.601Z,32.88
2019-02-22T14:48:28.092Z,33.71
2019-02-22T14:53:52.335Z,34.27
2019-02-22T14:59:16.210Z,34.49
2019-02-22T15:04:40.542Z,34.63
2019-02-22T15:10:06.097Z,34.62
2019-02-22T15:16:00.291Z,34.72
2019-02-22T15:21:18.028Z,34.41
2019-02-22T15:26:42.620Z,35.23
2019-02-22T15:32:07.403Z,34.86
2019-02-22T15:37:32.036Z,34.52
2019-02-22T15:42:55.694Z,34.31
2019-02-22T15:48:20.005Z,35.60
2019-02-22T15:53:44.106Z,37.54
2019-02-22T15:59:08.558Z,38.75
2019-02-22T16:04:38.591Z,40.88
2019-02-22T16:10:02.640Z,41.46
2019-02-22T16:15:28.393Z,41.50
2019-02-22T16:20:53.585Z,41.46
2019-02-22T16:26:21.429Z,42.46
2019-02-22T16:31:45.390Z,43.69
2019-02-22T16:37:09.346Z,45.39
2019-02-22T16:42:32.929Z,47.00
2019-02-22T16:47:57.800Z,47.71
2019-02-22T16:53:21.805Z,47.68
2019-02-22T16:58:45.441Z,48.75
2019-02-22T17:04:10.171Z,49.36
2019-02-22T17:09:34.531Z,49.68
2019-02-22T17:14:59.142Z,49.46
2019-02-22T17:20:22.834Z,49.17
2019-02-22T17:25:47.566Z,48.13
2019-02-22T17:31:12.384Z,49.01
2019-02-22T17:36:36.904Z,50.40
2019-02-22T17:42:00.562Z,51.45
2019-02-22T17:47:24.935Z,51.85
2019-02-22T17:52:49.500Z,50.33
2019-02-22T17:58:24.031Z,51.58
2019-02-22T18:03:40.055Z,52.09
2019-02-22T18:09:06.066Z,53.36
2019-02-22T18:14:30.468Z,53.15
2019-02-22T18:19:54.383Z,52.88
2019-02-22T18:25:19.772Z,52.09
2019-02-22T18:30:44.270Z,51.63
2019-02-22T18:36:15.039Z,52.13
2019-02-22T18:41:38.430Z,54.37
2019-02-22T18:47:02.272Z,54.28
2019-02-22T18:58:41.729Z,56.70
2019-02-22T19:04:08.857Z,58.94
2019-02-22T19:09:41.824Z,61.20
2019-02-22T19:15:08.853Z,61.54
2019-02-22T19:20:33.460Z,62.30
2019-02-22T19:26:08.105Z,61.76
2019-02-22T19:31:34.982Z,61.76
2019-02-22T19:36:58.721Z,61.89
2019-02-22T19:42:22.971Z,62.25
2019-02-22T19:47:46.915Z,62.06
2019-02-22T19:53:11.890Z,62.81
2019-02-22T19:58:36.450Z,63.99
2019-02-22T20:04:02.446Z,63.81
2019-02-22T20:09:26.321Z,64.24
2019-02-22T20:14:50.563Z,64.80
2019-02-22T20:20:15.690Z,64.52
2019-02-22T20:25:40.420Z,64.61
2019-02-22T20:31:05.444Z,63.51
2019-02-22T20:36:29.369Z,62.88
2019-02-22T20:41:53.754Z,62.78
2019-02-22T20:47:17.176Z,60.41
2019-02-22T20:52:41.960Z,59.09
2019-02-22T20:58:05.927Z,56.99
2019-02-22T21:03:30.646Z,56.72
2019-02-22T21:08:55.380Z,55.83
2019-02-22T21:14:19.454Z,56.26
2019-02-22T21:19:44.086Z,56.66
2019-02-22T21:25:08.616Z,57.35
2019-02-22T21:30:32.990Z,57.09
2019-02-22T21:35:58.022Z,57.23
2019-02-22T21:41:24.620Z,57.20
2019-02-22T21:46:49.458Z,57.40
2019-02-22T21:52:14.907Z,57.61
2019-02-22T21:57:39.523Z,58.43
2019-02-22T22:03:06.347Z,58.38
2019-02-22T22:08:30.041Z,58.59
2019-02-22T22:13:53.975Z,58.90
2019-02-22T22:19:17.815Z,59.55
2019-02-22T22:24:42.215Z,59.33
2019-02-22T22:30:07.455Z,60.34
2019-02-22T22:35:32.468Z,60.85
2019-02-22T22:40:56.787Z,60.55
2019-02-22T22:46:21.411Z,61.58
2019-02-22T22:51:45.939Z,60.90
2019-02-22T22:57:10.598Z,61.40
2019-02-22T23:02:35.266Z,60.94
2019-02-22T23:07:59.970Z,61.03
2019-02-22T23:13:24.619Z,60.85
2019-02-22T23:18:49.171Z,61.18
2019-02-22T23:24:14.004Z,60.85
2019-02-22T23:29:37.594Z,60.73
2019-02-22T23:35:01.424Z,60.55
2019-02-22T23:40:26.112Z,60.92
2019-02-22T23:45:50.044Z,61.35
2019-02-22T23:51:14.427Z,61.35
2019-02-22T23:56:38.414Z,61.64
